Time;durP1;ratioP1;P1;durP2;ratioP2;P2;SDS_P1;SDS_P2;PMS_P1;PMS_P2;Temp;Humidity;BMP_temperature;BMP_pressure;BME280_temperature;BME280_humidity;BME280_pressure;Samples;Min_cycle;Max_cycle;Signal;HPM_P1;HPM_P2
2022/11/21 00:01:16;;;;;;;35.70;18.45;;;;;;;;;;4961989;28;20436;-45
2022/11/21 00:03:42;;;;;;;40.25;18.55;;;;;;;;;;4963740;28;20189;-44
2022/11/21 00:06:07;;;;;;;31.87;19.60;;;;;;;;;;4964999;28;20257;-45
2022/11/21 00:08:33;;;;;;;33.47;20.30;;;;;;;;;;4966152;28;20425;-45
2022/11/21 00:10:59;;;;;;;36.70;18.43;;;;;;;;;;4965575;28;20434;-45
2022/11/21 00:13:25;;;;;;;28.13;17.25;;;;;;;;;;4968450;28;20469;-44
2022/11/21 00:15:51;;;;;;;28.15;17.35;;;;;;;;;;4964097;28;20185;-44
2022/11/21 00:18:17;;;;;;;36.00;17.30;;;;;;;;;;4960642;28;20188;-45
2022/11/21 00:20:43;;;;;;;32.40;15.45;;;;;;;;;;4967015;28;20420;-44
2022/11/21 00:23:10;;;;;;;32.47;17.67;;;;;;;;;;4965332;28;20718;-44
2022/11/21 00:25:36;;;;;;;27.98;16.42;;;;;;;;;;4967383;28;20229;-44
2022/11/21 00:28:03;;;;;;;29.90;17.42;;;;;;;;;;4964350;28;20178;-45
2022/11/21 00:30:29;;;;;;;34.15;16.83;;;;;;;;;;4966341;28;20192;-46
2022/11/21 00:32:55;;;;;;;29.02;15.48;;;;;;;;;;4963900;28;20301;-45
2022/11/21 00:35:21;;;;;;;27.48;16.00;;;;;;;;;;4964915;28;20647;-44
2022/11/21 00:37:47;;;;;;;30.85;16.17;;;;;;;;;;4967624;28;20196;-44
2022/11/21 00:40:13;;;;;;;21.67;14.73;;;;;;;;;;4963332;28;20221;-45
2022/11/21 00:42:39;;;;;;;30.30;16.88;;;;;;;;;;4964786;28;20202;-44
2022/11/21 00:45:06;;;;;;;32.97;15.13;;;;;;;;;;4964324;28;20767;-45
2022/11/21 00:47:31;;;;;;;27.33;15.43;;;;;;;;;;4964757;28;20540;-45
2022/11/21 00:49:57;;;;;;;23.20;14.67;;;;;;;;;;4970950;28;20184;-44
2022/11/21 00:52:23;;;;;;;29.80;15.80;;;;;;;;;;4964090;28;20956;-44
2022/11/21 00:54:49;;;;;;;25.00;15.00;;;;;;;;;;4966196;28;20425;-45
2022/11/21 00:57:15;;;;;;;25.37;14.67;;;;;;;;;;4961683;28;20422;-45
2022/11/21 00:59:41;;;;;;;27.40;14.23;;;;;;;;;;4962852;28;20425;-45
2022/11/21 01:02:07;;;;;;;33.93;16.23;;;;;;;;;;4963945;28;20438;-45
2022/11/21 01:04:33;;;;;;;28.20;15.40;;;;;;;;;;4965810;28;21097;-45
2022/11/21 01:07:00;;;;;;;24.85;14.77;;;;;;;;;;4965207;28;20217;-45
2022/11/21 01:09:27;;;;;;;26.15;16.00;;;;;;;;;;4967763;28;20197;-45
2022/11/21 01:11:53;;;;;;;27.13;15.60;;;;;;;;;;4964553;28;20273;-45
2022/11/21 01:14:19;;;;;;;30.02;16.55;;;;;;;;;;4959776;28;20210;-44
2022/11/21 01:16:45;;;;;;;27.73;14.63;;;;;;;;;;4966802;28;20278;-45
2022/11/21 01:19:11;;;;;;;30.60;16.23;;;;;;;;;;4964349;28;20920;-45
2022/11/21 01:21:37;;;;;;;32.97;16.50;;;;;;;;;;4966043;28;20837;-45
2022/11/21 01:24:03;;;;;;;38.33;16.70;;;;;;;;;;4963390;28;20425;-44
2022/11/21 01:26:30;;;;;;;34.15;17.75;;;;;;;;;;4965913;28;20422;-45
2022/11/21 01:28:57;;;;;;;31.38;16.75;;;;;;;;;;4963321;28;20671;-45
2022/11/21 01:31:24;;;;;;;33.55;16.25;;;;;;;;;;4963386;28;20216;-44
2022/11/21 01:33:50;;;;;;;33.72;17.05;;;;;;;;;;4967035;28;20664;-44
2022/11/21 01:36:20;;;;;;;33.93;16.23;;;;;;;;;;4962799;28;20182;-45
2022/11/21 01:38:47;;;;;;;42.25;18.92;;;;;;;;;;4963440;28;20498;-44
2022/11/21 01:41:15;;;;;;;35.63;18.50;;;;;;;;;;4963652;28;20198;-45
2022/11/21 01:43:41;;;;;;;36.42;19.55;;;;;;;;;;4963019;28;20185;-45
2022/11/21 01:46:07;;;;;;;28.60;16.70;;;;;;;;;;4963281;28;20555;-45
2022/11/21 01:48:38;;;;;;;35.70;17.43;;;;;;;;;;4968047;28;20424;-45
2022/11/21 01:51:25;;;;;;;35.65;17.95;;;;;;;;;;4966670;28;20598;-44
2022/11/21 01:53:54;;;;;;;35.58;17.48;;;;;;;;;;4964095;28;20206;-45
2022/11/21 01:56:21;;;;;;;35.10;17.55;;;;;;;;;;4959207;28;20181;-45
2022/11/21 01:59:21;;;;;;;38.40;19.77;;;;;;;;;;4965670;28;20236;-45
2022/11/21 02:01:50;;;;;;;40.60;18.05;;;;;;;;;;4960232;28;20248;-44
2022/11/21 02:04:16;;;;;;;40.67;18.58;;;;;;;;;;4961600;28;20224;-45
2022/11/21 02:06:43;;;;;;;37.67;18.77;;;;;;;;;;4963064;28;20253;-46
2022/11/21 02:09:09;;;;;;;32.67;17.48;;;;;;;;;;4962359;28;20406;-45
2022/11/21 02:11:34;;;;;;;43.60;20.20;;;;;;;;;;4962347;28;20208;-46
2022/11/21 02:14:01;;;;;;;37.53;18.97;;;;;;;;;;4962190;28;20859;-44
2022/11/21 02:16:28;;;;;;;45.70;20.55;;;;;;;;;;4968052;28;20427;-45
2022/11/21 02:18:54;;;;;;;32.88;18.30;;;;;;;;;;4965468;28;20181;-45
2022/11/21 02:21:41;;;;;;;34.40;19.17;;;;;;;;;;4960030;28;20246;-45
2022/11/21 02:24:14;;;;;;;36.00;18.45;;;;;;;;;;4958763;28;20241;-44
2022/11/21 02:26:40;;;;;;;38.70;17.70;;;;;;;;;;4965515;28;20181;-45
2022/11/21 02:29:06;;;;;;;35.88;17.05;;;;;;;;;;4963679;28;20195;-45
2022/11/21 02:31:32;;;;;;;34.10;17.47;;;;;;;;;;4965103;28;20197;-45
2022/11/21 02:33:58;;;;;;;38.30;17.40;;;;;;;;;;4962283;28;20466;-45
2022/11/21 02:36:39;;;;;;;37.13;16.60;;;;;;;;;;4964932;28;21031;-44
2022/11/21 02:39:06;;;;;;;35.10;17.48;;;;;;;;;;4963161;28;20521;-45
2022/11/21 02:41:34;;;;;;;36.25;18.33;;;;;;;;;;4961596;28;20202;-44
2022/11/21 02:44:06;;;;;;;35.60;19.42;;;;;;;;;;4967695;28;20197;-45
2022/11/21 02:46:34;;;;;;;38.42;18.00;;;;;;;;;;4954875;28;20567;-45
2022/11/21 02:49:00;;;;;;;35.42;18.10;;;;;;;;;;4960502;28;20610;-44
2022/11/21 02:51:26;;;;;;;34.85;17.83;;;;;;;;;;4962574;28;20197;-45
2022/11/21 02:53:52;;;;;;;37.27;18.80;;;;;;;;;;4961871;28;20212;-44
2022/11/21 02:56:18;;;;;;;38.50;18.23;;;;;;;;;;4963666;28;20421;-44
2022/11/21 02:58:44;;;;;;;41.73;19.07;;;;;;;;;;4965903;28;20418;-45
2022/11/21 03:01:10;;;;;;;43.17;21.13;;;;;;;;;;4965849;28;20437;-44
2022/11/21 03:03:36;;;;;;;37.50;18.17;;;;;;;;;;4961073;28;20174;-45
2022/11/21 03:06:02;;;;;;;34.13;17.43;;;;;;;;;;4958426;28;20413;-45
2022/11/21 03:08:28;;;;;;;40.73;17.73;;;;;;;;;;4964776;28;20962;-44
2022/11/21 03:10:54;;;;;;;43.20;18.13;;;;;;;;;;4963852;28;20417;-45
2022/11/21 03:13:19;;;;;;;34.03;16.70;;;;;;;;;;4963648;28;20454;-45
2022/11/21 03:15:45;;;;;;;48.67;18.77;;;;;;;;;;4963864;28;20414;-45
2022/11/21 03:18:11;;;;;;;35.40;18.13;;;;;;;;;;4964409;28;21132;-44
2022/11/21 03:20:37;;;;;;;37.67;17.57;;;;;;;;;;4958997;28;20419;-44
2022/11/21 03:23:03;;;;;;;31.27;17.50;;;;;;;;;;4964630;28;20480;-45
2022/11/21 03:25:30;;;;;;;34.77;16.33;;;;;;;;;;4963213;28;20417;-44
2022/11/21 03:27:56;;;;;;;41.33;20.13;;;;;;;;;;4963995;28;20930;-45
2022/11/21 03:30:22;;;;;;;32.97;17.50;;;;;;;;;;4967776;28;20202;-45
2022/11/21 03:32:49;;;;;;;38.58;18.30;;;;;;;;;;4965433;28;20461;-45
2022/11/21 03:35:15;;;;;;;43.08;18.85;;;;;;;;;;4966635;28;20177;-44
2022/11/21 03:37:41;;;;;;;36.10;17.30;;;;;;;;;;4965293;28;20186;-44
2022/11/21 03:40:07;;;;;;;42.73;20.00;;;;;;;;;;4971301;28;20195;-45
2022/11/21 03:42:33;;;;;;;34.47;15.90;;;;;;;;;;4965705;28;20440;-44
2022/11/21 03:44:59;;;;;;;35.10;17.87;;;;;;;;;;4963022;28;20561;-45
2022/11/21 03:47:26;;;;;;;35.70;16.27;;;;;;;;;;4966525;28;20413;-45
2022/11/21 03:49:52;;;;;;;41.58;20.80;;;;;;;;;;4971400;28;21070;-44
2022/11/21 03:52:18;;;;;;;41.20;19.97;;;;;;;;;;4966083;28;20236;-45
2022/11/21 03:54:44;;;;;;;32.15;17.50;;;;;;;;;;4964996;28;20969;-45
2022/11/21 03:57:10;;;;;;;40.77;18.77;;;;;;;;;;4969663;28;20176;-45
2022/11/21 03:59:36;;;;;;;39.53;17.53;;;;;;;;;;4964391;28;20405;-45
2022/11/21 04:02:02;;;;;;;34.47;17.13;;;;;;;;;;4961629;28;20430;-44
2022/11/21 04:04:28;;;;;;;49.53;19.30;;;;;;;;;;4964780;28;20493;-45
2022/11/21 04:06:54;;;;;;;31.37;16.63;;;;;;;;;;4964731;28;20414;-45
2022/11/21 04:09:20;;;;;;;32.90;15.80;;;;;;;;;;4966856;28;20413;-45
2022/11/21 04:11:46;;;;;;;36.30;18.13;;;;;;;;;;4966788;28;20525;-46
2022/11/21 04:14:12;;;;;;;32.90;19.07;;;;;;;;;;4967685;28;20467;-45
2022/11/21 04:16:37;;;;;;;37.53;17.43;;;;;;;;;;4962778;28;20459;-44
2022/11/21 04:19:03;;;;;;;31.73;16.50;;;;;;;;;;4959720;28;20425;-45
2022/11/21 04:21:29;;;;;;;36.77;17.37;;;;;;;;;;4967404;28;20507;-45
2022/11/21 04:23:55;;;;;;;32.60;15.33;;;;;;;;;;4965726;28;20420;-46
2022/11/21 04:26:21;;;;;;;34.53;15.77;;;;;;;;;;4966859;28;20990;-45
2022/11/21 04:28:47;;;;;;;30.10;16.30;;;;;;;;;;4965068;28;20987;-45
2022/11/21 04:31:13;;;;;;;30.10;15.67;;;;;;;;;;4965426;28;20445;-44
2022/11/21 04:33:39;;;;;;;32.53;15.60;;;;;;;;;;4960996;28;20465;-45
2022/11/21 04:36:06;;;;;;;39.50;15.50;;;;;;;;;;4967168;28;20823;-45
2022/11/21 04:38:32;;;;;;;33.30;15.52;;;;;;;;;;4965274;28;20409;-46
2022/11/21 04:40:58;;;;;;;34.90;16.93;;;;;;;;;;4963082;28;20851;-44
2022/11/21 04:43:24;;;;;;;31.17;16.83;;;;;;;;;;4971724;28;20783;-44
2022/11/21 04:45:50;;;;;;;32.40;16.00;;;;;;;;;;4963986;28;20512;-44
2022/11/21 04:48:16;;;;;;;33.70;14.95;;;;;;;;;;4964024;28;20440;-43
2022/11/21 04:50:42;;;;;;;32.45;15.95;;;;;;;;;;4963494;28;20209;-44
2022/11/21 04:53:07;;;;;;;37.47;17.87;;;;;;;;;;4968736;28;20244;-44
2022/11/21 04:55:34;;;;;;;27.27;14.57;;;;;;;;;;4963367;28;20413;-45
2022/11/21 04:58:00;;;;;;;40.10;16.60;;;;;;;;;;4961408;28;20417;-44
2022/11/21 05:00:26;;;;;;;29.10;15.15;;;;;;;;;;4963506;28;20201;-46
2022/11/21 05:02:52;;;;;;;36.70;17.60;;;;;;;;;;4963887;28;20672;-45
2022/11/21 05:05:18;;;;;;;36.50;17.33;;;;;;;;;;4965586;28;20642;-43
2022/11/21 05:07:44;;;;;;;37.93;19.30;;;;;;;;;;4966634;28;20421;-44
2022/11/21 05:10:10;;;;;;;33.57;17.37;;;;;;;;;;4966771;28;20479;-44
2022/11/21 05:15:20;;;;;;;28.05;17.05;;;;;;;;;;4959050;28;20417;-43
2022/11/21 05:17:46;;;;;;;34.07;17.03;;;;;;;;;;4966828;28;20186;-44
2022/11/21 05:20:13;;;;;;;40.17;19.17;;;;;;;;;;4963573;28;20410;-44
2022/11/21 05:22:39;;;;;;;35.42;17.30;;;;;;;;;;4965027;28;20424;-45
2022/11/21 05:25:06;;;;;;;35.23;16.50;;;;;;;;;;4963686;28;20671;-47
2022/11/21 05:27:31;;;;;;;43.03;17.65;;;;;;;;;;4964665;28;20425;-47
2022/11/21 05:29:57;;;;;;;37.50;18.37;;;;;;;;;;4962630;28;20181;-43
2022/11/21 05:32:24;;;;;;;39.60;17.10;;;;;;;;;;4963382;28;20434;-44
2022/11/21 05:34:50;;;;;;;49.65;17.30;;;;;;;;;;4966519;28;20492;-43
2022/11/21 05:37:16;;;;;;;42.50;18.65;;;;;;;;;;4962012;28;20193;-44
2022/11/21 05:39:42;;;;;;;34.33;16.43;;;;;;;;;;4963113;28;20179;-44
2022/11/21 05:42:08;;;;;;;32.73;16.90;;;;;;;;;;4962929;28;20425;-44
2022/11/21 05:44:33;;;;;;;36.60;16.77;;;;;;;;;;4963019;28;20416;-44
2022/11/21 05:46:59;;;;;;;46.07;17.47;;;;;;;;;;4962936;28;20481;-44
2022/11/21 05:49:25;;;;;;;40.37;18.53;;;;;;;;;;4970772;28;20413;-45
2022/11/21 05:51:51;;;;;;;38.35;18.60;;;;;;;;;;4965269;28;20492;-46
2022/11/21 05:54:17;;;;;;;35.90;17.03;;;;;;;;;;4959987;28;20218;-43
2022/11/21 05:56:43;;;;;;;34.43;17.93;;;;;;;;;;4960986;28;20418;-43
2022/11/21 05:59:12;;;;;;;44.50;20.40;;;;;;;;;;4963315;28;20417;-44
2022/11/21 06:04:23;;;;;;;43.33;18.20;;;;;;;;;;4964629;28;20188;-44
2022/11/21 06:06:49;;;;;;;42.85;19.33;;;;;;;;;;4963397;28;20183;-44
2022/11/21 06:09:15;;;;;;;45.40;21.60;;;;;;;;;;4964281;28;20180;-44
2022/11/21 06:11:41;;;;;;;50.07;19.10;;;;;;;;;;4959577;28;20436;-45
2022/11/21 06:14:07;;;;;;;37.57;16.30;;;;;;;;;;4965096;28;21188;-45
2022/11/21 06:16:33;;;;;;;42.70;18.40;;;;;;;;;;4963589;28;20907;-43
2022/11/21 06:18:58;;;;;;;46.80;19.23;;;;;;;;;;4962021;28;20934;-44
2022/11/21 06:21:27;;;;;;;48.07;18.73;;;;;;;;;;4963891;28;20800;-44
2022/11/21 06:23:53;;;;;;;40.00;19.60;;;;;;;;;;4962142;28;20429;-43
2022/11/21 06:26:21;;;;;;;41.00;18.08;;;;;;;;;;4962706;28;20196;-43
2022/11/21 06:28:47;;;;;;;38.05;17.55;;;;;;;;;;4962123;28;20443;-44
2022/11/21 06:31:17;;;;;;;45.10;19.30;;;;;;;;;;4966906;28;20252;-44
2022/11/21 06:33:43;;;;;;;39.10;18.60;;;;;;;;;;4962968;28;20213;-45
2022/11/21 06:36:13;;;;;;;41.13;19.80;;;;;;;;;;4959418;28;20182;-45
2022/11/21 06:38:40;;;;;;;44.75;18.90;;;;;;;;;;4960952;28;20190;-44
2022/11/21 06:41:10;;;;;;;49.70;19.88;;;;;;;;;;4961842;28;20190;-43
2022/11/21 06:43:36;;;;;;;49.30;20.00;;;;;;;;;;4965336;28;20184;-44
2022/11/21 06:46:03;;;;;;;42.77;19.30;;;;;;;;;;4962682;28;20178;-43
2022/11/21 06:48:29;;;;;;;47.25;20.17;;;;;;;;;;4965478;28;20414;-43
2022/11/21 06:50:55;;;;;;;43.35;19.80;;;;;;;;;;4962410;28;20212;-43
2022/11/21 06:53:21;;;;;;;56.97;20.93;;;;;;;;;;4957599;28;20249;-43
2022/11/21 06:55:47;;;;;;;49.77;21.87;;;;;;;;;;4964167;28;20437;-44
2022/11/21 06:58:13;;;;;;;48.93;20.10;;;;;;;;;;4960902;28;20414;-43
2022/11/21 07:00:39;;;;;;;47.80;19.37;;;;;;;;;;4963540;28;20408;-45
2022/11/21 07:03:05;;;;;;;48.78;22.08;;;;;;;;;;4961046;28;20410;-45
2022/11/21 07:05:31;;;;;;;45.90;18.77;;;;;;;;;;4963319;28;20189;-47
2022/11/21 07:07:58;;;;;;;47.50;20.90;;;;;;;;;;4961367;28;20413;-43
2022/11/21 07:10:24;;;;;;;45.15;20.17;;;;;;;;;;4961790;28;20434;-50
2022/11/21 07:15:34;;;;;;;50.17;22.30;;;;;;;;;;4954374;28;20990;-43
2022/11/21 07:18:00;;;;;;;48.25;21.65;;;;;;;;;;4959367;28;20182;-45
2022/11/21 07:20:27;;;;;;;42.08;19.70;;;;;;;;;;4961795;28;20312;-44
2022/11/21 07:22:54;;;;;;;41.10;18.73;;;;;;;;;;4961576;28;20198;-43
2022/11/21 07:25:20;;;;;;;40.67;18.15;;;;;;;;;;4963695;28;20257;-43
2022/11/21 07:27:46;;;;;;;47.77;20.47;;;;;;;;;;4964472;28;20333;-43
2022/11/21 07:30:12;;;;;;;51.63;19.60;;;;;;;;;;4965122;28;20479;-44
2022/11/21 07:32:38;;;;;;;42.60;19.52;;;;;;;;;;4959831;28;20441;-43
2022/11/21 07:35:04;;;;;;;48.57;21.90;;;;;;;;;;4957219;28;20196;-44
2022/11/21 07:37:30;;;;;;;43.95;21.23;;;;;;;;;;4964613;28;20409;-44
2022/11/21 07:39:56;;;;;;;47.30;19.63;;;;;;;;;;4964896;28;20170;-44
2022/11/21 07:42:22;;;;;;;44.70;20.10;;;;;;;;;;4963447;28;20196;-43
2022/11/21 07:44:48;;;;;;;41.77;19.63;;;;;;;;;;4962555;28;20461;-44
2022/11/21 07:47:14;;;;;;;43.97;19.33;;;;;;;;;;4963305;28;20420;-44
2022/11/21 07:49:40;;;;;;;44.90;20.30;;;;;;;;;;4954742;28;20782;-45
2022/11/21 07:52:06;;;;;;;47.20;19.97;;;;;;;;;;4966880;28;20816;-44
2022/11/21 07:54:32;;;;;;;41.57;18.63;;;;;;;;;;4962590;28;20869;-44
2022/11/21 07:56:58;;;;;;;50.67;21.30;;;;;;;;;;4961095;28;20859;-44
2022/11/21 07:59:24;;;;;;;42.03;18.17;;;;;;;;;;4963296;28;20795;-44
2022/11/21 08:01:51;;;;;;;42.97;19.30;;;;;;;;;;4960578;28;20805;-44
2022/11/21 08:04:17;;;;;;;35.85;16.35;;;;;;;;;;4961794;28;20416;-43
2022/11/21 08:06:43;;;;;;;33.77;16.60;;;;;;;;;;4961036;28;20213;-44
2022/11/21 08:09:09;;;;;;;46.67;19.07;;;;;;;;;;4966452;28;20420;-43
2022/11/21 08:11:38;;;;;;;45.33;19.63;;;;;;;;;;4960818;28;20572;-44
2022/11/21 08:14:03;;;;;;;46.95;21.50;;;;;;;;;;4960120;28;20964;-46
2022/11/21 08:16:31;;;;;;;38.90;17.50;;;;;;;;;;4965765;28;20221;-44
2022/11/21 08:18:58;;;;;;;35.63;16.85;;;;;;;;;;4964609;28;20406;-46
2022/11/21 08:21:24;;;;;;;35.63;18.23;;;;;;;;;;4966898;28;20252;-44
2022/11/21 08:23:50;;;;;;;37.13;17.47;;;;;;;;;;4967145;28;20190;-43
2022/11/21 08:26:16;;;;;;;36.17;16.90;;;;;;;;;;4968302;28;20414;-43
2022/11/21 08:28:42;;;;;;;37.03;17.58;;;;;;;;;;4963976;28;20455;-43
2022/11/21 08:31:08;;;;;;;35.80;16.80;;;;;;;;;;4959944;28;20230;-44
2022/11/21 08:33:34;;;;;;;35.17;18.27;;;;;;;;;;4967671;28;21048;-44
2022/11/21 08:36:03;;;;;;;40.30;18.23;;;;;;;;;;4965856;28;20824;-44
2022/11/21 08:38:29;;;;;;;44.33;20.10;;;;;;;;;;4956541;28;20985;-44
2022/11/21 08:43:40;;;;;;;35.35;18.40;;;;;;;;;;4963149;28;20461;-43
2022/11/21 08:46:06;;;;;;;36.77;18.80;;;;;;;;;;4964861;28;20598;-45
2022/11/21 08:48:32;;;;;;;31.60;16.80;;;;;;;;;;4963859;28;20414;-44
2022/11/21 08:50:58;;;;;;;45.27;17.17;;;;;;;;;;4968642;28;20437;-43
2022/11/21 08:53:24;;;;;;;29.27;16.37;;;;;;;;;;4963140;28;20465;-43
2022/11/21 08:55:50;;;;;;;44.03;18.60;;;;;;;;;;4963374;28;20414;-45
2022/11/21 08:58:15;;;;;;;38.27;17.33;;;;;;;;;;4964557;28;20463;-44
2022/11/21 09:00:41;;;;;;;32.23;17.03;;;;;;;;;;4963466;28;20410;-44
2022/11/21 09:03:07;;;;;;;36.30;17.87;;;;;;;;;;4964234;28;20422;-44
2022/11/21 09:05:33;;;;;;;37.27;16.63;;;;;;;;;;4968682;28;20421;-45
2022/11/21 09:07:59;;;;;;;38.40;19.10;;;;;;;;;;4967265;28;20420;-43
2022/11/21 09:10:26;;;;;;;37.40;17.13;;;;;;;;;;4960835;28;20906;-44
2022/11/21 09:12:52;;;;;;;31.80;16.43;;;;;;;;;;4961066;28;20513;-45
2022/11/21 09:18:03;;;;;;;38.22;17.38;;;;;;;;;;4964723;28;20313;-43
2022/11/21 09:20:30;;;;;;;37.72;16.88;;;;;;;;;;4955143;28;20257;-43
2022/11/21 09:22:56;;;;;;;43.72;17.02;;;;;;;;;;4963057;28;20701;-43
2022/11/21 09:25:22;;;;;;;36.85;16.85;;;;;;;;;;4965001;28;20196;-44
2022/11/21 09:27:48;;;;;;;36.53;15.70;;;;;;;;;;4962516;28;20655;-43
2022/11/21 09:30:15;;;;;;;41.90;16.73;;;;;;;;;;4964785;28;20938;-43
2022/11/21 09:32:41;;;;;;;39.63;17.80;;;;;;;;;;4965832;28;20433;-43
2022/11/21 09:35:07;;;;;;;37.93;17.47;;;;;;;;;;4962613;28;20327;-43
2022/11/21 09:37:37;;;;;;;50.38;19.40;;;;;;;;;;4964843;28;20440;-43
2022/11/21 09:40:03;;;;;;;44.08;18.77;;;;;;;;;;4962866;28;20178;-44
2022/11/21 09:42:35;;;;;;;45.50;17.95;;;;;;;;;;4961682;28;20253;-43
2022/11/21 09:45:06;;;;;;;47.17;20.58;;;;;;;;;;4962981;28;20205;-43
2022/11/21 09:47:34;;;;;;;48.03;18.80;;;;;;;;;;4957536;28;20174;-44
2022/11/21 09:50:01;;;;;;;50.17;19.45;;;;;;;;;;4966530;28;20284;-43
2022/11/21 09:52:31;;;;;;;46.03;19.57;;;;;;;;;;4960441;28;20207;-44
2022/11/21 09:55:01;;;;;;;42.03;19.50;;;;;;;;;;4960282;28;20465;-43
2022/11/21 09:57:27;;;;;;;45.10;19.80;;;;;;;;;;4965776;28;20241;-45
2022/11/21 09:59:53;;;;;;;54.00;20.60;;;;;;;;;;4965142;28;20410;-43
2022/11/21 10:02:21;;;;;;;55.50;21.20;;;;;;;;;;4964551;28;20481;-45
2022/11/21 10:04:47;;;;;;;48.57;21.10;;;;;;;;;;4964205;28;20755;-43
2022/11/21 10:07:20;;;;;;;39.63;19.07;;;;;;;;;;4965230;28;20471;-43
2022/11/21 10:09:58;;;;;;;52.80;21.30;;;;;;;;;;4961275;28;20804;-44
2022/11/21 10:12:43;;;;;;;44.00;20.50;;;;;;;;;;4962514;28;20968;-43
2022/11/21 10:15:22;;;;;;;49.43;19.30;;;;;;;;;;4968082;28;20429;-44
2022/11/21 10:17:56;;;;;;;49.33;20.50;;;;;;;;;;4964927;28;20441;-43
2022/11/21 10:20:31;;;;;;;46.37;21.90;;;;;;;;;;4960277;28;20428;-46
2022/11/21 10:23:01;;;;;;;49.30;21.70;;;;;;;;;;4959520;28;20513;-44
2022/11/21 10:25:29;;;;;;;44.70;19.03;;;;;;;;;;4965241;28;20907;-44
2022/11/21 10:28:00;;;;;;;54.17;21.37;;;;;;;;;;4964564;28;20501;-44
2022/11/21 10:30:26;;;;;;;54.87;23.93;;;;;;;;;;4964877;28;20453;-46
2022/11/21 10:32:55;;;;;;;52.40;21.63;;;;;;;;;;4963135;28;20474;-45
2022/11/21 10:35:21;;;;;;;49.47;21.77;;;;;;;;;;4956168;28;20440;-44
2022/11/21 10:37:55;;;;;;;43.07;18.90;;;;;;;;;;4964243;28;20421;-43
2022/11/21 10:40:43;;;;;;;33.00;16.70;;;;;;;;;;4963038;28;20420;-43
2022/11/21 10:46:00;;;;;;;30.57;17.33;;;;;;;;;;4965589;28;20463;-43
2022/11/21 10:48:26;;;;;;;32.97;17.33;;;;;;;;;;4959102;28;20504;-43
2022/11/21 10:51:05;;;;;;;24.67;13.77;;;;;;;;;;4963859;28;20492;-43
2022/11/21 10:56:21;;;;;;;18.40;14.07;;;;;;;;;;4962325;28;20420;-43
2022/11/21 10:58:49;;;;;;;34.47;15.20;;;;;;;;;;4966759;28;20405;-43
2022/11/21 11:01:20;;;;;;;21.70;14.53;;;;;;;;;;4962548;28;20471;-43
2022/11/21 11:03:46;;;;;;;25.80;15.93;;;;;;;;;;4961631;28;20460;-43
2022/11/21 11:06:11;;;;;;;29.93;14.67;;;;;;;;;;4961559;28;20453;-43
2022/11/21 11:08:53;;;;;;;28.57;16.03;;;;;;;;;;4960365;28;20424;-43
2022/11/21 11:11:20;;;;;;;35.13;18.60;;;;;;;;;;4957577;28;20452;-43
2022/11/21 11:14:06;;;;;;;27.83;16.07;;;;;;;;;;4964589;28;20969;-43
2022/11/21 11:16:34;;;;;;;19.00;13.00;;;;;;;;;;4963611;28;20418;-44
2022/11/21 11:19:02;;;;;;;20.33;13.00;;;;;;;;;;4956054;28;20421;-45
2022/11/21 11:21:40;;;;;;;18.03;13.30;;;;;;;;;;4963818;28;20485;-46
2022/11/21 11:24:09;;;;;;;22.43;14.93;;;;;;;;;;4962901;28;20443;-45
2022/11/21 11:26:55;;;;;;;19.20;12.30;;;;;;;;;;4964578;28;20509;-44
2022/11/21 11:29:22;;;;;;;15.80;11.83;;;;;;;;;;4961522;28;20416;-44
2022/11/21 11:31:51;;;;;;;21.20;12.37;;;;;;;;;;4960877;28;20444;-45
2022/11/21 11:34:18;;;;;;;18.53;12.70;;;;;;;;;;4963365;28;20939;-47
2022/11/21 11:37:03;;;;;;;21.40;12.43;;;;;;;;;;4961230;28;20763;-46
2022/11/21 11:39:35;;;;;;;19.20;12.93;;;;;;;;;;4967695;28;20409;-45
2022/11/21 11:48:00;;;;;;;19.40;12.53;;;;;;;;;;4955574;28;20412;-47
2022/11/21 11:50:30;;;;;;;21.27;12.20;;;;;;;;;;4965998;28;20420;-46
2022/11/21 11:53:17;;;;;;;16.57;11.63;;;;;;;;;;4971182;28;20874;-45
2022/11/21 11:55:53;;;;;;;17.87;12.23;;;;;;;;;;4954646;28;20418;-46
2022/11/21 11:58:23;;;;;;;14.13;10.40;;;;;;;;;;4962618;28;20932;-47
2022/11/21 12:00:52;;;;;;;14.07;10.67;;;;;;;;;;4963865;28;20460;-46
2022/11/21 12:03:18;;;;;;;13.07;10.30;;;;;;;;;;4966558;28;20413;-47
2022/11/21 12:06:00;;;;;;;22.23;11.20;;;;;;;;;;4968593;28;20478;-48
2022/11/21 12:08:30;;;;;;;19.03;11.97;;;;;;;;;;4967423;28;20417;-47
2022/11/21 12:13:51;;;;;;;16.40;9.50;;;;;;;;;;4964035;28;20472;-46
2022/11/21 12:16:17;;;;;;;17.50;9.17;;;;;;;;;;4963760;28;20431;-49
2022/11/21 12:18:50;;;;;;;13.03;10.00;;;;;;;;;;4970688;28;20421;-48
2022/11/21 12:21:17;;;;;;;10.60;8.50;;;;;;;;;;4971862;28;20821;-47
2022/11/21 12:23:46;;;;;;;24.07;10.20;;;;;;;;;;4966044;28;20921;-45
2022/11/21 12:26:17;;;;;;;12.93;9.80;;;;;;;;;;4962725;28;20417;-46
2022/11/21 12:29:02;;;;;;;11.00;9.50;;;;;;;;;;4963710;28;20421;-46
2022/11/21 12:31:37;;;;;;;13.17;9.30;;;;;;;;;;4964059;28;20433;-47
2022/11/21 12:34:15;;;;;;;15.33;8.93;;;;;;;;;;4965048;28;20465;-47
2022/11/21 12:36:45;;;;;;;18.83;10.40;;;;;;;;;;4958270;28;20417;-46
2022/11/21 12:39:31;;;;;;;13.53;11.23;;;;;;;;;;4965619;28;20789;-48
2022/11/21 12:45:14;;;;;;;16.87;11.17;;;;;;;;;;4960138;28;20429;-46
2022/11/21 12:56:35;;;;;;;11.80;9.20;;;;;;;;;;4964290;28;20480;-46
2022/11/21 12:59:03;;;;;;;10.23;9.00;;;;;;;;;;4964643;28;20516;-45
2022/11/21 13:01:39;;;;;;;17.00;9.70;;;;;;;;;;4963704;28;20888;-47
2022/11/21 13:04:16;;;;;;;13.20;10.40;;;;;;;;;;4964717;28;20417;-47
2022/11/21 13:06:43;;;;;;;15.47;9.87;;;;;;;;;;4967791;28;20416;-47
2022/11/21 13:09:13;;;;;;;17.63;10.90;;;;;;;;;;4966661;28;20476;-45
2022/11/21 13:11:59;;;;;;;26.03;10.23;;;;;;;;;;4966841;28;20440;-47
2022/11/21 13:14:40;;;;;;;17.50;10.37;;;;;;;;;;4959847;28;20463;-48
2022/11/21 13:17:11;;;;;;;14.10;9.83;;;;;;;;;;4966771;28;20420;-48
2022/11/21 13:19:41;;;;;;;12.63;9.27;;;;;;;;;;4965246;28;20957;-47
2022/11/21 13:22:27;;;;;;;11.83;9.67;;;;;;;;;;4961988;28;21019;-45
2022/11/21 13:24:55;;;;;;;11.93;8.77;;;;;;;;;;4961882;28;20902;-47
2022/11/21 13:27:27;;;;;;;12.73;9.53;;;;;;;;;;4963414;28;20951;-47
2022/11/21 13:30:09;;;;;;;12.80;9.37;;;;;;;;;;4963128;28;20924;-47
2022/11/21 13:32:38;;;;;;;11.20;8.90;;;;;;;;;;4963037;28;20982;-46
2022/11/21 13:35:14;;;;;;;23.60;10.77;;;;;;;;;;4962794;28;20472;-48
2022/11/21 13:37:49;;;;;;;24.73;9.77;;;;;;;;;;4964088;28;20809;-46
2022/11/21 13:40:29;;;;;;;13.20;9.67;;;;;;;;;;4964012;28;20780;-46
2022/11/21 13:43:15;;;;;;;12.50;9.93;;;;;;;;;;4962450;28;20450;-46
2022/11/21 13:45:49;;;;;;;12.13;9.70;;;;;;;;;;4958797;28;20430;-46
2022/11/21 13:48:21;;;;;;;13.70;8.30;;;;;;;;;;4968589;28;20413;-46
2022/11/21 13:50:47;;;;;;;12.63;8.23;;;;;;;;;;4964642;28;20409;-47
2022/11/21 13:53:32;;;;;;;8.43;7.30;;;;;;;;;;4960347;28;20465;-45
2022/11/21 13:56:25;;;;;;;11.57;8.73;;;;;;;;;;4959774;28;20410;-47
2022/11/21 13:59:01;;;;;;;11.10;8.30;;;;;;;;;;4971278;28;20416;-47
2022/11/21 14:01:45;;;;;;;10.70;7.77;;;;;;;;;;4963574;28;20427;-47
2022/11/21 14:04:25;;;;;;;7.77;7.00;;;;;;;;;;4962060;28;20425;-47
2022/11/21 14:06:51;;;;;;;13.53;7.20;;;;;;;;;;4961852;28;20426;-48
2022/11/21 14:09:21;;;;;;;11.60;7.07;;;;;;;;;;4963591;28;20452;-47
2022/11/21 14:11:48;;;;;;;6.77;6.00;;;;;;;;;;4968400;28;20442;-47
2022/11/21 14:14:33;;;;;;;7.70;5.80;;;;;;;;;;4965093;28;20465;-47
2022/11/21 14:17:22;;;;;;;8.17;5.87;;;;;;;;;;4964200;28;20416;-46
2022/11/21 14:19:48;;;;;;;7.53;5.97;;;;;;;;;;4944312;28;20417;-46
2022/11/21 14:22:38;;;;;;;10.10;5.80;;;;;;;;;;4964875;28;20475;-46
2022/11/21 14:25:09;;;;;;;6.20;5.70;;;;;;;;;;4959994;28;20422;-47
2022/11/21 14:27:37;;;;;;;9.53;5.53;;;;;;;;;;4962877;28;20428;-46
2022/11/21 14:30:03;;;;;;;10.60;6.80;;;;;;;;;;4967461;28;20513;-46
2022/11/21 14:32:30;;;;;;;8.80;6.20;;;;;;;;;;4961490;28;20843;-46
2022/11/21 14:35:21;;;;;;;10.20;6.17;;;;;;;;;;4960903;28;20466;-45
2022/11/21 14:37:48;;;;;;;6.90;6.23;;;;;;;;;;4956991;28;20416;-46
2022/11/21 14:40:20;;;;;;;8.00;6.07;;;;;;;;;;4964010;28;20420;-47
2022/11/21 14:42:46;;;;;;;7.67;6.33;;;;;;;;;;4965024;28;20432;-47
2022/11/21 14:45:18;;;;;;;6.40;5.60;;;;;;;;;;4963491;28;20408;-45
2022/11/21 14:47:50;;;;;;;11.70;7.00;;;;;;;;;;4964389;28;20413;-46
2022/11/21 14:50:22;;;;;;;7.63;6.93;;;;;;;;;;4965080;28;20419;-47
2022/11/21 14:52:55;;;;;;;11.30;6.57;;;;;;;;;;4961332;28;20519;-46
2022/11/21 14:55:24;;;;;;;6.87;5.57;;;;;;;;;;4963816;28;20414;-46
2022/11/21 14:57:50;;;;;;;11.63;6.63;;;;;;;;;;4966502;28;20734;-45
2022/11/21 15:00:19;;;;;;;12.53;7.13;;;;;;;;;;4961714;28;20503;-44
2022/11/21 15:02:45;;;;;;;9.10;7.07;;;;;;;;;;4962103;28;20435;-47
2022/11/21 15:05:15;;;;;;;11.73;6.87;;;;;;;;;;4963515;28;20478;-47
2022/11/21 15:07:42;;;;;;;8.43;6.53;;;;;;;;;;4963196;28;20406;-46